createdAt,value
2018-11-13T00:00:21.621Z,1.53
2018-11-13T00:02:51.353Z,1.50
2018-11-13T00:05:20.968Z,1.70
2018-11-13T00:07:50.021Z,1.80
2018-11-13T00:10:19.083Z,1.70
2018-11-13T00:12:48.217Z,2.25
2018-11-13T00:15:18.169Z,2.00
2018-11-13T00:17:47.277Z,1.43
2018-11-13T00:20:17.581Z,1.90
2018-11-13T00:22:46.613Z,1.65
2018-11-13T00:25:16.932Z,1.50
2018-11-13T00:27:46.205Z,1.70
2018-11-13T00:30:18.903Z,1.40
2018-11-13T00:32:47.984Z,1.30
2018-11-13T00:35:17.812Z,1.20
2018-11-13T00:37:47.752Z,1.20
2018-11-13T00:40:17.509Z,1.33
2018-11-13T00:42:47.041Z,1.23
2018-11-13T00:45:16.111Z,1.30
2018-11-13T00:47:45.113Z,1.10
2018-11-13T00:50:15.919Z,1.10
2018-11-13T00:52:45.552Z,1.20
2018-11-13T00:55:14.710Z,1.30
2018-11-13T00:57:43.764Z,1.10
2018-11-13T01:00:17.116Z,1.20
2018-11-13T01:02:46.327Z,1.40
2018-11-13T01:05:16.748Z,1.30
2018-11-13T01:07:46.988Z,1.40
2018-11-13T01:10:17.483Z,1.47
2018-11-13T01:12:47.119Z,1.57
2018-11-13T01:15:17.337Z,2.15
2018-11-13T01:17:47.040Z,2.07
2018-11-13T01:20:16.755Z,2.13
2018-11-13T01:22:45.842Z,1.80
2018-11-13T01:25:15.696Z,1.80
2018-11-13T01:27:46.030Z,1.50
2018-11-13T01:30:15.840Z,1.40
2018-11-13T01:32:45.417Z,1.40
2018-11-13T01:35:15.950Z,1.83
2018-11-13T01:37:45.024Z,1.77
2018-11-13T01:40:15.930Z,1.90
2018-11-13T01:42:45.284Z,1.98
2018-11-13T01:45:15.703Z,1.50
2018-11-13T01:47:44.882Z,1.67
2018-11-13T01:50:14.356Z,1.97
2018-11-13T01:52:43.454Z,1.70
2018-11-13T01:55:13.669Z,1.47
2018-11-13T01:57:42.703Z,1.57
2018-11-13T02:00:17.176Z,1.60
2018-11-13T02:02:47.645Z,1.90
2018-11-13T02:05:17.528Z,1.45
2018-11-13T02:07:47.781Z,1.80
2018-11-13T02:10:17.368Z,1.63
2018-11-13T02:12:47.071Z,2.00
2018-11-13T02:15:16.537Z,1.90
2018-11-13T02:17:45.646Z,1.72
2018-11-13T02:20:17.274Z,1.83
2018-11-13T02:22:46.456Z,1.50
2018-11-13T02:25:16.610Z,1.77
2018-11-13T02:27:46.057Z,1.82
2018-11-13T02:30:16.806Z,1.77
2018-11-13T02:32:46.545Z,2.00
2018-11-13T02:35:16.135Z,1.90
2018-11-13T02:37:45.212Z,1.70
2018-11-13T02:40:14.610Z,1.90
2018-11-13T02:42:43.884Z,2.03
2018-11-13T02:45:15.445Z,2.20
2018-11-13T02:47:44.727Z,1.90
2018-11-13T02:50:16.759Z,2.60
2018-11-13T02:52:45.836Z,1.77
2018-11-13T02:55:15.154Z,1.90
2018-11-13T02:57:44.910Z,2.30
2018-11-13T03:00:19.198Z,2.10
2018-11-13T03:02:48.320Z,2.40
2018-11-13T03:05:18.563Z,2.17
2018-11-13T03:07:47.700Z,2.70
2018-11-13T03:10:18.325Z,2.35
2018-11-13T03:12:47.403Z,2.30
2018-11-13T03:15:17.656Z,2.20
2018-11-13T03:17:46.707Z,2.70
2018-11-13T03:20:17.881Z,2.35
2018-11-13T03:22:47.497Z,2.53
2018-11-13T03:25:19.109Z,2.63
2018-11-13T03:27:48.164Z,2.73
2018-11-13T03:30:20.851Z,2.70
2018-11-13T03:32:49.922Z,2.60
2018-11-13T03:35:19.756Z,2.90
2018-11-13T03:37:48.850Z,2.73
2018-11-13T03:40:18.156Z,2.90
2018-11-13T03:42:48.309Z,2.50
2018-11-13T03:45:17.823Z,2.53
2018-11-13T03:47:46.871Z,2.77
2018-11-13T03:50:20.422Z,2.83
2018-11-13T03:52:49.705Z,2.33
2018-11-13T03:55:19.737Z,3.20
2018-11-13T03:57:49.583Z,2.73
2018-11-13T04:00:19.940Z,2.50
2018-11-13T04:02:48.983Z,2.37
2018-11-13T04:05:18.982Z,2.10
2018-11-13T04:07:49.234Z,2.70
2018-11-13T04:10:19.124Z,2.57
2018-11-13T04:12:48.210Z,2.60
2018-11-13T04:15:19.664Z,2.57
2018-11-13T04:17:48.865Z,2.60
2018-11-13T04:20:19.060Z,2.83
2018-11-13T04:22:48.359Z,2.40
2018-11-13T04:25:17.450Z,2.70
2018-11-13T04:27:46.477Z,2.70
2018-11-13T04:30:16.727Z,2.87
2018-11-13T04:32:45.864Z,2.58
2018-11-13T04:35:16.171Z,2.10
2018-11-13T04:37:45.277Z,2.20
2018-11-13T04:40:16.299Z,2.30
2018-11-13T04:42:46.644Z,2.00
2018-11-13T04:45:16.796Z,2.40
2018-11-13T04:47:46.936Z,2.30
2018-11-13T04:50:17.122Z,1.93
2018-11-13T04:52:46.139Z,2.07
2018-11-13T04:55:15.535Z,2.08
2018-11-13T04:57:45.672Z,2.00
2018-11-13T05:00:17.903Z,2.07
2018-11-13T05:02:47.355Z,2.00
2018-11-13T05:05:17.161Z,1.90
2018-11-13T05:07:53.819Z,2.07
2018-11-13T05:10:24.981Z,2.20
2018-11-13T05:12:54.024Z,2.30
2018-11-13T05:15:23.060Z,2.00
2018-11-13T05:17:52.143Z,2.20
2018-11-13T05:20:21.231Z,2.30
2018-11-13T05:22:50.320Z,2.00
2018-11-13T05:25:20.542Z,2.20
2018-11-13T05:27:49.584Z,2.08
2018-11-13T05:30:20.200Z,2.13
2018-11-13T05:32:49.515Z,2.00
2018-11-13T05:35:19.576Z,1.90
2018-11-13T05:37:48.758Z,2.00
2018-11-13T05:40:20.076Z,1.80
2018-11-13T05:42:49.276Z,1.57
2018-11-13T05:45:19.604Z,1.75
2018-11-13T05:47:48.621Z,2.00
2018-11-13T05:50:18.586Z,1.80
2018-11-13T05:52:49.097Z,1.57
2018-11-13T05:55:18.220Z,1.70
2018-11-13T05:57:47.396Z,1.80
2018-11-13T06:00:20.097Z,1.80
2018-11-13T06:02:49.264Z,1.73
2018-11-13T06:05:18.368Z,1.90
2018-11-13T06:07:47.436Z,2.00
2018-11-13T06:10:16.676Z,2.13
2018-11-13T06:12:45.735Z,1.97
2018-11-13T06:15:14.775Z,2.53
2018-11-13T06:17:43.837Z,2.23
2018-11-13T06:20:14.624Z,1.60
2018-11-13T06:22:43.700Z,2.37
2018-11-13T06:25:15.536Z,2.00
2018-11-13T06:27:45.650Z,2.85
2018-11-13T06:30:19.687Z,2.50
2018-11-13T06:32:49.214Z,2.63
2018-11-13T06:35:18.231Z,2.97
2018-11-13T06:37:47.226Z,2.70
2018-11-13T06:40:16.235Z,2.80
2018-11-13T06:42:45.334Z,2.83
2018-11-13T06:45:16.801Z,2.67
2018-11-13T06:47:46.517Z,2.97
2018-11-13T06:50:15.609Z,2.53
2018-11-13T06:52:45.336Z,2.80
2018-11-13T06:55:23.080Z,2.97
2018-11-13T06:57:52.118Z,2.70
2018-11-13T07:00:21.240Z,2.87
2018-11-13T07:02:50.357Z,2.43
2018-11-13T07:05:19.743Z,2.50
2018-11-13T07:07:49.136Z,2.60
2018-11-13T07:10:19.726Z,2.90
2018-11-13T07:12:50.087Z,2.80
2018-11-13T07:15:20.488Z,2.97
2018-11-13T07:17:50.766Z,2.63
2018-11-13T07:20:21.286Z,2.90
2018-11-13T07:22:50.404Z,2.80
2018-11-13T07:25:19.499Z,3.17
2018-11-13T07:27:48.522Z,2.87
2018-11-13T07:30:18.907Z,3.12
2018-11-13T07:32:48.013Z,2.60
2018-11-13T07:35:18.188Z,3.00
2018-11-13T07:37:56.715Z,3.50
2018-11-13T07:40:25.798Z,3.07
2018-11-13T07:42:54.985Z,2.70
2018-11-13T07:45:24.103Z,3.10
2018-11-13T07:47:53.713Z,3.23
2018-11-13T07:50:22.704Z,2.93
2018-11-13T07:52:51.735Z,3.02
2018-11-13T07:55:20.786Z,3.30
2018-11-13T07:57:49.922Z,3.00
2018-11-13T08:00:20.917Z,3.23
2018-11-13T08:02:51.196Z,3.30
2018-11-13T08:05:20.284Z,3.17
2018-11-13T08:07:49.388Z,3.30
2018-11-13T08:10:18.525Z,3.17
2018-11-13T08:12:47.600Z,3.30
2018-11-13T08:15:18.168Z,3.27
2018-11-13T08:17:47.208Z,3.30
2018-11-13T08:20:16.724Z,3.35
2018-11-13T08:22:45.769Z,3.40
2018-11-13T08:25:14.865Z,3.17
2018-11-13T08:27:43.917Z,3.37
2018-11-13T08:30:15.051Z,3.30
2018-11-13T08:32:44.683Z,4.03
2018-11-13T08:35:15.036Z,3.83
2018-11-13T08:37:44.116Z,3.63
2018-11-13T08:40:14.395Z,3.05
2018-11-13T08:42:44.233Z,3.12
2018-11-13T08:45:13.863Z,3.03
2018-11-13T08:47:43.161Z,3.20
2018-11-13T08:50:12.977Z,3.10
2018-11-13T08:52:42.955Z,2.97
2018-11-13T08:55:12.592Z,3.10
2018-11-13T08:57:41.685Z,2.60
2018-11-13T09:00:18.816Z,3.33
2018-11-13T09:02:48.656Z,2.90
2018-11-13T09:05:18.089Z,2.33
2018-11-13T09:07:47.902Z,2.27
2018-11-13T09:10:18.059Z,2.40
2018-11-13T09:12:47.536Z,2.23
2018-11-13T09:15:17.973Z,2.43
2018-11-13T09:17:46.973Z,2.60
2018-11-13T09:20:17.314Z,2.67
2018-11-13T09:22:46.326Z,2.20
2018-11-13T09:25:18.502Z,2.25
2018-11-13T09:27:47.580Z,2.23
2018-11-13T09:30:18.131Z,2.20
2018-11-13T09:32:47.461Z,2.20
2018-11-13T09:35:17.371Z,2.47
2018-11-13T09:37:46.420Z,2.35
2018-11-13T09:40:17.700Z,2.33
2018-11-13T09:42:48.473Z,2.43
2018-11-13T09:45:17.904Z,2.17
2018-11-13T09:47:47.072Z,1.97
2018-11-13T09:50:17.404Z,2.40
2018-11-13T09:52:47.784Z,2.17
2018-11-13T09:55:18.136Z,1.82
2018-11-13T09:57:47.251Z,2.05
2018-11-13T10:00:19.704Z,2.17
2018-11-13T10:02:50.468Z,2.00
2018-11-13T10:05:19.995Z,2.27
2018-11-13T10:07:49.220Z,2.30
2018-11-13T10:10:18.338Z,2.03
2018-11-13T10:12:47.563Z,2.17
2018-11-13T10:15:19.261Z,1.80
2018-11-13T10:17:48.398Z,2.22
2018-11-13T10:20:17.894Z,1.97
2018-11-13T10:22:48.451Z,2.30
2018-11-13T10:25:17.542Z,2.17
2018-11-13T10:27:46.670Z,1.90
2018-11-13T10:30:16.876Z,2.00
2018-11-13T10:32:46.362Z,1.87
2018-11-13T10:35:16.612Z,1.70
2018-11-13T10:37:45.713Z,1.62
2018-11-13T10:40:16.090Z,1.60
2018-11-13T10:42:45.160Z,1.90
2018-11-13T10:45:17.108Z,2.20
2018-11-13T10:47:46.204Z,1.92
2018-11-13T10:50:17.826Z,1.80
2018-11-13T10:52:46.849Z,2.40
2018-11-13T10:55:17.340Z,1.70
2018-11-13T10:57:46.430Z,1.70
2018-11-13T11:00:21.826Z,1.80
2018-11-13T11:02:53.767Z,2.00
2018-11-13T11:05:27.204Z,1.80
2018-11-13T11:07:56.889Z,1.93
2018-11-13T11:10:26.480Z,1.77
2018-11-13T11:12:55.635Z,1.80
2018-11-13T11:15:24.617Z,2.00
2018-11-13T11:17:53.685Z,2.17
2018-11-13T11:20:22.760Z,1.70
2018-11-13T11:22:51.936Z,2.47
2018-11-13T11:25:21.194Z,1.50
2018-11-13T11:27:50.133Z,1.57
2018-11-13T11:30:19.835Z,2.10
2018-11-13T11:32:48.963Z,2.10
2018-11-13T11:35:18.083Z,1.80
2018-11-13T11:37:47.137Z,2.20
2018-11-13T11:40:16.220Z,1.87
2018-11-13T11:42:45.544Z,1.98
2018-11-13T11:45:15.020Z,1.43
2018-11-13T11:47:44.405Z,1.70
2018-11-13T11:50:14.689Z,1.98
2018-11-13T11:52:43.817Z,2.10
2018-11-13T11:55:13.345Z,1.70
2018-11-13T11:57:42.425Z,1.60
2018-11-13T12:00:14.938Z,2.10
2018-11-13T12:02:44.069Z,1.63
2018-11-13T12:05:13.204Z,1.90
2018-11-13T12:07:42.403Z,1.93
2018-11-13T12:10:12.886Z,1.95
2018-11-13T12:12:42.169Z,1.72
2018-11-13T12:15:12.782Z,2.00
2018-11-13T12:17:42.400Z,1.47
2018-11-13T12:20:12.844Z,1.67
2018-11-13T12:22:42.040Z,1.57
2018-11-13T12:25:13.516Z,2.30
2018-11-13T12:27:43.083Z,1.70
2018-11-13T12:30:15.388Z,1.83
2018-11-13T12:32:45.113Z,2.65
2018-11-13T12:35:15.255Z,1.40
2018-11-13T12:37:44.328Z,1.70
2018-11-13T12:40:15.031Z,2.20
2018-11-13T12:42:46.515Z,1.70
2018-11-13T12:45:14.209Z,1.40
2018-11-13T12:47:43.813Z,2.37
2018-11-13T12:50:14.120Z,1.90
2018-11-13T12:52:43.236Z,1.87
2018-11-13T12:55:21.246Z,1.80
2018-11-13T12:57:50.272Z,1.50
2018-11-13T13:00:22.664Z,1.50
2018-11-13T13:02:51.835Z,2.17
2018-11-13T13:05:20.903Z,1.90
2018-11-13T13:07:49.968Z,1.40
2018-11-13T13:10:20.056Z,1.80
2018-11-13T13:12:49.126Z,1.60
2018-11-13T13:15:18.689Z,1.50
2018-11-13T13:17:47.742Z,1.70
2018-11-13T13:20:18.858Z,1.70
2018-11-13T13:22:48.806Z,1.80
2018-11-13T13:25:18.772Z,2.07
2018-11-13T13:27:47.852Z,1.60
2018-11-13T13:30:22.199Z,1.73
2018-11-13T13:32:51.432Z,1.47
2018-11-13T13:35:55.798Z,1.57
2018-11-13T13:38:25.033Z,1.50
2018-11-13T13:40:55.205Z,1.50
2018-11-13T13:43:24.908Z,1.63
2018-11-13T13:45:53.964Z,1.63
2018-11-13T13:48:23.318Z,1.90
2018-11-13T13:50:52.323Z,1.60
2018-11-13T13:53:21.948Z,1.70
2018-11-13T13:55:51.284Z,1.47
2018-11-13T13:58:21.029Z,1.62
2018-11-13T14:00:50.434Z,1.47
2018-11-13T14:03:19.336Z,1.43
2018-11-13T14:05:48.597Z,1.30
2018-11-13T14:08:18.118Z,1.57
2018-11-13T14:10:47.193Z,1.63
2018-11-13T14:13:16.283Z,1.50
2018-11-13T14:15:45.332Z,1.63
2018-11-13T14:18:14.397Z,1.35
2018-11-13T14:20:43.472Z,1.40
2018-11-13T14:23:12.520Z,1.70
2018-11-13T14:25:41.638Z,1.30
2018-11-13T14:28:10.782Z,1.57
2018-11-13T14:30:39.830Z,1.63
2018-11-13T14:33:11.114Z,1.47
2018-11-13T14:35:40.286Z,1.62
2018-11-13T14:38:09.381Z,1.65
2018-11-13T14:40:43.648Z,1.97
2018-11-13T14:43:13.301Z,2.37
2018-11-13T14:45:42.695Z,1.50
2018-11-13T14:48:12.546Z,2.00
2018-11-13T14:50:42.094Z,1.70
2018-11-13T14:53:11.608Z,1.93
2018-11-13T14:55:42.676Z,1.62
2018-11-13T14:58:12.822Z,1.75
2018-11-13T15:00:42.177Z,1.77
2018-11-13T15:03:12.508Z,1.60
2018-11-13T15:05:41.693Z,1.70
2018-11-13T15:08:11.190Z,1.73
2018-11-13T15:10:49.264Z,1.50
2018-11-13T15:13:18.765Z,1.33
2018-11-13T15:15:47.789Z,1.90
2018-11-13T15:18:16.900Z,1.43
2018-11-13T15:20:46.425Z,2.10
2018-11-13T15:23:15.683Z,1.73
2018-11-13T15:25:44.795Z,1.80
2018-11-13T15:28:14.265Z,1.90
2018-11-13T15:30:48.585Z,1.83
2018-11-13T15:33:24.324Z,1.52
2018-11-13T15:35:53.371Z,1.82
2018-11-13T15:38:22.440Z,1.40
2018-11-13T15:40:51.539Z,1.55
2018-11-13T15:43:20.645Z,1.97
2018-11-13T15:45:49.647Z,2.13
2018-11-13T15:48:18.728Z,2.57
2018-11-13T15:50:47.776Z,2.40
2018-11-13T15:53:16.905Z,2.00
2018-11-13T15:55:45.966Z,1.50
2018-11-13T15:58:21.845Z,1.73
2018-11-13T16:00:50.806Z,2.03
2018-11-13T16:03:22.483Z,2.77
2018-11-13T16:05:53.771Z,2.70
2018-11-13T16:08:23.031Z,1.90
2018-11-13T16:10:51.860Z,2.27
2018-11-13T16:13:20.888Z,2.98
2018-11-13T16:15:49.912Z,2.27
2018-11-13T16:18:20.739Z,2.60
2018-11-13T16:20:49.761Z,2.50
2018-11-13T16:23:18.801Z,2.20
2018-11-13T16:25:47.849Z,2.47
2018-11-13T16:28:16.900Z,2.97
2018-11-13T16:30:46.194Z,2.10
2018-11-13T16:33:15.143Z,2.55
2018-11-13T16:35:44.215Z,2.75
2018-11-13T16:38:13.706Z,2.47
2018-11-13T16:40:42.672Z,2.17
2018-11-13T16:43:11.764Z,2.40
2018-11-13T16:45:40.839Z,2.60
2018-11-13T16:48:09.948Z,3.03
2018-11-13T16:50:40.534Z,2.40
2018-11-13T16:53:10.524Z,2.50
2018-11-13T16:55:45.101Z,2.23
2018-11-13T16:58:15.432Z,1.93
2018-11-13T17:00:44.703Z,2.50
2018-11-13T17:03:13.696Z,1.87
2018-11-13T17:05:42.898Z,2.43
2018-11-13T17:08:11.976Z,1.65
2018-11-13T17:10:42.148Z,2.63
2018-11-13T17:13:11.220Z,2.40
2018-11-13T17:15:40.319Z,2.70
2018-11-13T17:18:09.423Z,3.10
2018-11-13T17:20:38.462Z,2.50
2018-11-13T17:23:07.560Z,2.43
2018-11-13T17:25:38.536Z,2.13
2018-11-13T17:28:08.228Z,2.13
2018-11-13T17:30:37.943Z,2.13
2018-11-13T17:33:08.883Z,2.20
2018-11-13T17:35:38.014Z,2.27
2018-11-13T17:38:07.322Z,2.50
2018-11-13T17:40:37.044Z,2.30
2018-11-13T17:43:07.400Z,2.43
2018-11-13T17:45:38.690Z,2.37
2018-11-13T17:48:09.528Z,2.90
2018-11-13T17:50:39.776Z,2.40
2018-11-13T17:53:09.808Z,3.07
2018-11-13T17:55:39.500Z,3.30
2018-11-13T17:58:11.736Z,2.63
2018-11-13T18:00:42.292Z,3.10
2018-11-13T18:03:13.673Z,2.73
2018-11-13T18:05:43.969Z,3.05
2018-11-13T18:08:13.898Z,3.47
2018-11-13T18:10:44.392Z,3.00
2018-11-13T18:13:13.637Z,2.95
2018-11-13T18:15:42.865Z,4.23
2018-11-13T18:18:12.725Z,4.85
2018-11-13T18:20:42.986Z,3.53
2018-11-13T18:23:15.355Z,3.63
2018-11-13T18:25:45.578Z,3.47
2018-11-13T18:28:15.841Z,3.17
2018-11-13T18:30:46.388Z,6.13
2018-11-13T18:33:16.757Z,4.70
2018-11-13T18:35:46.234Z,3.37
2018-11-13T18:38:16.356Z,3.80
2018-11-13T18:40:45.847Z,3.80
2018-11-13T18:43:16.655Z,3.63
2018-11-13T18:45:46.576Z,4.80
2018-11-13T18:48:15.992Z,6.07
2018-11-13T18:50:46.350Z,7.17
2018-11-13T18:53:16.051Z,6.78
2018-11-13T18:55:45.466Z,5.90
2018-11-13T18:58:16.163Z,4.05
2018-11-13T19:00:45.384Z,2.92
2018-11-13T19:03:14.631Z,3.20
2018-11-13T19:05:44.386Z,3.20
2018-11-13T19:08:14.434Z,3.77
2018-11-13T19:10:45.751Z,3.60
2018-11-13T19:13:17.593Z,3.50
2018-11-13T19:15:51.814Z,3.67
2018-11-13T19:18:21.809Z,3.40
2018-11-13T19:20:51.308Z,3.40
2018-11-13T19:23:21.200Z,3.10
2018-11-13T19:25:50.993Z,3.53
2018-11-13T19:28:20.521Z,3.17
2018-11-13T19:30:50.036Z,3.30
2018-11-13T19:33:19.718Z,3.40
2018-11-13T19:35:50.270Z,3.13
2018-11-13T19:38:19.976Z,3.80
2018-11-13T19:40:53.959Z,3.77
2018-11-13T19:43:25.872Z,3.57
2018-11-13T19:45:55.611Z,2.90
2018-11-13T19:48:25.493Z,2.90
2018-11-13T19:50:54.640Z,3.40
2018-11-13T19:53:24.395Z,3.77
2018-11-13T19:55:53.946Z,3.90
2018-11-13T19:58:24.233Z,3.92
2018-11-13T20:00:53.931Z,3.50
2018-11-13T20:03:23.334Z,3.60
2018-11-13T20:05:55.240Z,3.40
2018-11-13T20:08:25.045Z,3.75
2018-11-13T20:10:54.576Z,2.93
2018-11-13T20:13:24.639Z,3.23
2018-11-13T20:15:54.527Z,3.00
2018-11-13T20:18:25.539Z,4.00
2018-11-13T20:20:56.012Z,3.50
2018-11-13T20:23:25.963Z,4.00
2018-11-13T20:25:55.366Z,3.43
2018-11-13T20:28:25.673Z,3.50
2018-11-13T20:30:55.410Z,3.93
2018-11-13T20:33:24.892Z,3.20
2018-11-13T20:35:53.980Z,3.37
2018-11-13T20:38:23.322Z,3.97
2018-11-13T20:40:52.832Z,3.40
2018-11-13T20:43:22.200Z,3.42
2018-11-13T20:45:52.259Z,2.87
2018-11-13T20:48:22.092Z,2.70
2018-11-13T20:50:51.605Z,2.57
2018-11-13T20:53:21.182Z,3.07
2018-11-13T20:55:50.597Z,4.13
2018-11-13T20:58:20.472Z,2.60
2018-11-13T21:00:49.824Z,2.90
2018-11-13T21:03:19.967Z,2.90
2018-11-13T21:05:50.056Z,2.93
2018-11-13T21:08:19.587Z,2.70
2018-11-13T21:10:48.920Z,2.57
2018-11-13T21:13:18.093Z,2.70
2018-11-13T21:15:47.643Z,2.80
2018-11-13T21:18:16.944Z,2.90
2018-11-13T21:20:46.221Z,3.17
2018-11-13T21:23:15.877Z,2.97
2018-11-13T21:25:45.192Z,2.77
2018-11-13T21:28:14.614Z,2.50
2018-11-13T21:30:43.964Z,2.83
2018-11-13T21:33:15.092Z,2.97
2018-11-13T21:35:45.564Z,2.65
2018-11-13T21:38:15.269Z,2.93
2018-11-13T21:40:45.031Z,2.70
2018-11-13T21:43:14.845Z,2.80
2018-11-13T21:48:21.983Z,3.20
2018-11-13T21:50:52.233Z,2.92
2018-11-13T21:53:22.340Z,4.00
2018-11-13T21:55:53.473Z,3.03
2018-11-13T21:58:23.809Z,2.75
2018-11-13T22:00:54.698Z,2.70
2018-11-13T22:03:25.261Z,2.33
2018-11-13T22:05:55.311Z,3.20
2018-11-13T22:08:25.593Z,3.10
2018-11-13T22:10:55.380Z,2.93
2018-11-13T22:13:25.721Z,2.83
2018-11-13T22:15:55.963Z,3.67
2018-11-13T22:18:26.216Z,3.42
2018-11-13T22:20:56.272Z,3.27
2018-11-13T22:23:25.763Z,3.00
2018-11-13T22:25:54.859Z,3.30
2018-11-13T22:28:24.093Z,2.43
2018-11-13T22:30:53.648Z,3.50
2018-11-13T22:33:22.950Z,4.03
2018-11-13T22:35:52.217Z,3.30
2018-11-13T22:38:21.425Z,3.12
2018-11-13T22:40:50.709Z,3.47
2018-11-13T22:43:19.955Z,2.90
2018-11-13T22:45:49.100Z,2.95
2018-11-13T22:48:18.418Z,3.20
2018-11-13T22:50:47.570Z,3.17
2018-11-13T22:53:16.789Z,2.83
2018-11-13T22:55:46.163Z,3.10
2018-11-13T22:58:15.620Z,3.03
2018-11-13T23:00:46.683Z,3.47
2018-11-13T23:03:16.938Z,3.07
2018-11-13T23:05:47.212Z,3.57
2018-11-13T23:08:17.912Z,3.00
2018-11-13T23:10:48.434Z,3.08
2018-11-13T23:13:17.706Z,3.90
2018-11-13T23:15:47.651Z,3.80
2018-11-13T23:18:16.876Z,2.97
2018-11-13T23:20:46.873Z,3.07
2018-11-13T23:23:16.044Z,2.90
2018-11-13T23:25:45.258Z,3.00
2018-11-13T23:28:14.458Z,3.23
2018-11-13T23:30:43.911Z,3.40
2018-11-13T23:33:13.052Z,3.23
2018-11-13T23:35:43.352Z,3.70
2018-11-13T23:38:12.679Z,2.90
2018-11-13T23:40:42.547Z,3.27
2018-11-13T23:43:13.452Z,3.33
2018-11-13T23:45:43.235Z,2.80
2018-11-13T23:48:13.178Z,2.93
2018-11-13T23:50:43.372Z,3.20
2018-11-13T23:53:13.054Z,2.87
2018-11-13T23:55:43.170Z,3.10
2018-11-13T23:58:12.778Z,3.07
